sensor_id;sensor_type;location;lat;lon;timestamp;temperature;humidity
23188;DHT22;11762;59.878;17.686;2023-11-22T00:01:20;-8.20;99.90
23188;DHT22;11762;59.878;17.686;2023-11-22T00:03:47;-8.20;99.90
23188;DHT22;11762;59.878;17.686;2023-11-22T00:06:14;-8.10;99.90
23188;DHT22;11762;59.878;17.686;2023-11-22T00:08:41;-8.20;99.90
23188;DHT22;11762;59.878;17.686;2023-11-22T00:11:08;-8.20;99.90
23188;DHT22;11762;59.878;17.686;2023-11-22T00:13:35;-8.20;99.90
23188;DHT22;11762;59.878;17.686;2023-11-22T00:16:04;-8.30;99.90
23188;DHT22;11762;59.878;17.686;2023-11-22T00:18:34;-8.40;99.90
23188;DHT22;11762;59.878;17.686;2023-11-22T00:21:03;-8.30;99.90
23188;DHT22;11762;59.878;17.686;2023-11-22T00:23:30;-8.30;99.90
23188;DHT22;11762;59.878;17.686;2023-11-22T00:25:58;-8.30;99.90
23188;DHT22;11762;59.878;17.686;2023-11-22T00:28:25;-8.40;99.90
23188;DHT22;11762;59.878;17.686;2023-11-22T00:30:52;-8.40;99.90
23188;DHT22;11762;59.878;17.686;2023-11-22T00:33:20;-8.30;99.90
23188;DHT22;11762;59.878;17.686;2023-11-22T00:35:47;-8.30;99.90
23188;DHT22;11762;59.878;17.686;2023-11-22T00:38:14;-8.30;99.90
23188;DHT22;11762;59.878;17.686;2023-11-22T00:40:42;-8.30;99.90
23188;DHT22;11762;59.878;17.686;2023-11-22T00:43:09;-8.20;99.90
23188;DHT22;11762;59.878;17.686;2023-11-22T00:45:36;-8.40;99.90
23188;DHT22;11762;59.878;17.686;2023-11-22T00:48:03;-8.40;99.90
23188;DHT22;11762;59.878;17.686;2023-11-22T00:50:31;-8.50;99.90
23188;DHT22;11762;59.878;17.686;2023-11-22T00:52:58;-8.50;99.90
23188;DHT22;11762;59.878;17.686;2023-11-22T00:55:25;-8.50;99.90
23188;DHT22;11762;59.878;17.686;2023-11-22T00:57:52;-8.40;99.90
23188;DHT22;11762;59.878;17.686;2023-11-22T01:00:19;-8.30;99.90
23188;DHT22;11762;59.878;17.686;2023-11-22T01:02:46;-8.30;99.90
23188;DHT22;11762;59.878;17.686;2023-11-22T01:05:13;-8.40;99.90
23188;DHT22;11762;59.878;17.686;2023-11-22T01:07:42;-8.50;99.90
23188;DHT22;11762;59.878;17.686;2023-11-22T01:10:10;-8.50;99.90
23188;DHT22;11762;59.878;17.686;2023-11-22T01:12:37;-8.40;99.90
23188;DHT22;11762;59.878;17.686;2023-11-22T01:15:04;-8.50;99.90
23188;DHT22;11762;59.878;17.686;2023-11-22T01:17:32;-8.60;99.90
23188;DHT22;11762;59.878;17.686;2023-11-22T01:20:00;-8.70;99.90
23188;DHT22;11762;59.878;17.686;2023-11-22T01:22:27;-8.80;99.90
23188;DHT22;11762;59.878;17.686;2023-11-22T01:24:55;-8.80;99.90
23188;DHT22;11762;59.878;17.686;2023-11-22T01:27:22;-8.90;99.90
23188;DHT22;11762;59.878;17.686;2023-11-22T01:29:50;-8.90;99.90
23188;DHT22;11762;59.878;17.686;2023-11-22T01:32:19;-8.90;99.90
23188;DHT22;11762;59.878;17.686;2023-11-22T01:34:46;-8.80;99.90
23188;DHT22;11762;59.878;17.686;2023-11-22T01:37:13;-8.80;99.90
23188;DHT22;11762;59.878;17.686;2023-11-22T01:39:40;-8.70;99.90
23188;DHT22;11762;59.878;17.686;2023-11-22T01:42:10;-8.60;99.90
23188;DHT22;11762;59.878;17.686;2023-11-22T01:44:37;-8.60;99.90
23188;DHT22;11762;59.878;17.686;2023-11-22T01:47:05;-8.80;99.90
23188;DHT22;11762;59.878;17.686;2023-11-22T01:49:32;-8.80;99.90
23188;DHT22;11762;59.878;17.686;2023-11-22T01:51:59;-8.90;99.90
23188;DHT22;11762;59.878;17.686;2023-11-22T01:54:27;-9.00;99.90
23188;DHT22;11762;59.878;17.686;2023-11-22T01:56:55;-9.10;99.90
23188;DHT22;11762;59.878;17.686;2023-11-22T01:59:25;-9.00;99.90
23188;DHT22;11762;59.878;17.686;2023-11-22T02:01:53;-8.90;99.90
23188;DHT22;11762;59.878;17.686;2023-11-22T02:04:20;-8.90;99.90
23188;DHT22;11762;59.878;17.686;2023-11-22T02:06:47;-8.90;99.90
23188;DHT22;11762;59.878;17.686;2023-11-22T02:09:14;-8.90;99.90
23188;DHT22;11762;59.878;17.686;2023-11-22T02:11:41;-8.90;99.90
23188;DHT22;11762;59.878;17.686;2023-11-22T02:14:11;-8.80;99.90
23188;DHT22;11762;59.878;17.686;2023-11-22T02:16:39;-8.80;99.90
23188;DHT22;11762;59.878;17.686;2023-11-22T02:19:07;-8.90;99.90
23188;DHT22;11762;59.878;17.686;2023-11-22T02:21:39;-9.10;99.90
23188;DHT22;11762;59.878;17.686;2023-11-22T02:24:08;-9.10;99.90
23188;DHT22;11762;59.878;17.686;2023-11-22T02:26:35;-9.10;99.90
23188;DHT22;11762;59.878;17.686;2023-11-22T02:29:02;-9.10;99.90
23188;DHT22;11762;59.878;17.686;2023-11-22T02:31:30;-9.00;99.90
23188;DHT22;11762;59.878;17.686;2023-11-22T02:33:57;-9.10;99.90
23188;DHT22;11762;59.878;17.686;2023-11-22T02:36:24;-9.00;99.90
23188;DHT22;11762;59.878;17.686;2023-11-22T02:38:52;-8.90;99.90
23188;DHT22;11762;59.878;17.686;2023-11-22T02:41:21;-8.90;99.90
23188;DHT22;11762;59.878;17.686;2023-11-22T02:43:48;-8.80;99.90
23188;DHT22;11762;59.878;17.686;2023-11-22T02:46:15;-8.80;99.90
23188;DHT22;11762;59.878;17.686;2023-11-22T02:48:42;-8.80;99.90
23188;DHT22;11762;59.878;17.686;2023-11-22T02:51:10;-8.70;99.90
23188;DHT22;11762;59.878;17.686;2023-11-22T02:53:39;-8.70;99.90
23188;DHT22;11762;59.878;17.686;2023-11-22T02:56:09;-8.70;99.90
23188;DHT22;11762;59.878;17.686;2023-11-22T02:58:37;-8.70;99.90
23188;DHT22;11762;59.878;17.686;2023-11-22T03:01:04;-8.60;99.90
23188;DHT22;11762;59.878;17.686;2023-11-22T03:03:33;-8.60;99.90
23188;DHT22;11762;59.878;17.686;2023-11-22T03:06:00;-8.60;99.90
23188;DHT22;11762;59.878;17.686;2023-11-22T03:08:27;-8.70;99.90
23188;DHT22;11762;59.878;17.686;2023-11-22T03:10:54;-8.70;99.90
23188;DHT22;11762;59.878;17.686;2023-11-22T03:13:21;-8.80;99.90
23188;DHT22;11762;59.878;17.686;2023-11-22T03:15:50;-8.80;99.90
23188;DHT22;11762;59.878;17.686;2023-11-22T03:18:17;-8.80;99.90
23188;DHT22;11762;59.878;17.686;2023-11-22T03:20:45;-8.80;99.90
23188;DHT22;11762;59.878;17.686;2023-11-22T03:23:12;-8.70;99.90
23188;DHT22;11762;59.878;17.686;2023-11-22T03:25:42;-8.70;99.90
23188;DHT22;11762;59.878;17.686;2023-11-22T03:28:09;-8.70;99.90
23188;DHT22;11762;59.878;17.686;2023-11-22T03:30:36;-8.70;99.90
23188;DHT22;11762;59.878;17.686;2023-11-22T03:33:05;-8.70;99.90
23188;DHT22;11762;59.878;17.686;2023-11-22T03:35:31;-8.60;99.90
23188;DHT22;11762;59.878;17.686;2023-11-22T03:37:58;-8.40;99.90
23188;DHT22;11762;59.878;17.686;2023-11-22T03:40:26;-8.40;99.90
23188;DHT22;11762;59.878;17.686;2023-11-22T03:42:52;-8.30;99.90
23188;DHT22;11762;59.878;17.686;2023-11-22T03:45:19;-8.20;99.90
23188;DHT22;11762;59.878;17.686;2023-11-22T03:47:46;-8.00;99.90
23188;DHT22;11762;59.878;17.686;2023-11-22T03:50:15;-7.90;99.90
23188;DHT22;11762;59.878;17.686;2023-11-22T03:52:42;-7.90;99.90
23188;DHT22;11762;59.878;17.686;2023-11-22T03:55:09;-7.80;99.90
23188;DHT22;11762;59.878;17.686;2023-11-22T03:57:36;-7.70;99.90
23188;DHT22;11762;59.878;17.686;2023-11-22T04:00:04;-7.70;99.90
23188;DHT22;11762;59.878;17.686;2023-11-22T04:02:32;-7.60;99.90
23188;DHT22;11762;59.878;17.686;2023-11-22T04:04:59;-7.50;99.90
23188;DHT22;11762;59.878;17.686;2023-11-22T04:07:27;-7.50;99.90
23188;DHT22;11762;59.878;17.686;2023-11-22T04:09:54;-7.40;99.90
23188;DHT22;11762;59.878;17.686;2023-11-22T04:12:21;-7.40;99.90
23188;DHT22;11762;59.878;17.686;2023-11-22T04:14:48;-7.30;99.90
23188;DHT22;11762;59.878;17.686;2023-11-22T04:17:17;-7.20;99.90
23188;DHT22;11762;59.878;17.686;2023-11-22T04:19:44;-7.00;99.90
23188;DHT22;11762;59.878;17.686;2023-11-22T04:22:11;-6.90;99.90
23188;DHT22;11762;59.878;17.686;2023-11-22T04:24:39;-6.70;99.90
23188;DHT22;11762;59.878;17.686;2023-11-22T04:27:06;-6.60;99.90
23188;DHT22;11762;59.878;17.686;2023-11-22T04:29:33;-6.50;99.90
23188;DHT22;11762;59.878;17.686;2023-11-22T04:32:00;-6.30;99.90
23188;DHT22;11762;59.878;17.686;2023-11-22T04:34:28;-6.10;99.90
23188;DHT22;11762;59.878;17.686;2023-11-22T04:36:55;-5.90;99.90
23188;DHT22;11762;59.878;17.686;2023-11-22T04:39:22;-5.80;99.90
23188;DHT22;11762;59.878;17.686;2023-11-22T04:41:50;-5.70;99.90
23188;DHT22;11762;59.878;17.686;2023-11-22T04:44:17;-5.60;99.90
23188;DHT22;11762;59.878;17.686;2023-11-22T04:46:44;-5.40;99.90
23188;DHT22;11762;59.878;17.686;2023-11-22T04:49:11;-5.30;99.90
23188;DHT22;11762;59.878;17.686;2023-11-22T04:51:39;-5.20;99.90
23188;DHT22;11762;59.878;17.686;2023-11-22T04:54:06;-5.10;99.90
23188;DHT22;11762;59.878;17.686;2023-11-22T04:56:33;-5.00;99.90
23188;DHT22;11762;59.878;17.686;2023-11-22T04:59:01;-4.90;99.90
23188;DHT22;11762;59.878;17.686;2023-11-22T05:01:31;-4.80;99.90
23188;DHT22;11762;59.878;17.686;2023-11-22T05:03:58;-4.70;99.90
23188;DHT22;11762;59.878;17.686;2023-11-22T05:06:25;-4.70;99.90
23188;DHT22;11762;59.878;17.686;2023-11-22T05:08:53;-4.60;99.90
23188;DHT22;11762;59.878;17.686;2023-11-22T05:11:20;-4.50;99.90
23188;DHT22;11762;59.878;17.686;2023-11-22T05:13:47;-4.40;99.90
23188;DHT22;11762;59.878;17.686;2023-11-22T05:16:17;-4.30;99.90
23188;DHT22;11762;59.878;17.686;2023-11-22T05:18:44;-4.30;99.90
23188;DHT22;11762;59.878;17.686;2023-11-22T05:21:11;-4.30;99.90
23188;DHT22;11762;59.878;17.686;2023-11-22T05:23:38;-4.40;99.90
23188;DHT22;11762;59.878;17.686;2023-11-22T05:26:05;-4.30;99.90
23188;DHT22;11762;59.878;17.686;2023-11-22T05:28:32;-4.20;99.90
23188;DHT22;11762;59.878;17.686;2023-11-22T05:30:59;-4.20;99.90
23188;DHT22;11762;59.878;17.686;2023-11-22T05:33:27;-4.10;99.90
23188;DHT22;11762;59.878;17.686;2023-11-22T05:35:54;-4.10;99.90
23188;DHT22;11762;59.878;17.686;2023-11-22T05:38:21;-4.10;99.90
23188;DHT22;11762;59.878;17.686;2023-11-22T05:40:49;-4.00;99.90
23188;DHT22;11762;59.878;17.686;2023-11-22T05:43:16;-4.00;99.90
23188;DHT22;11762;59.878;17.686;2023-11-22T05:45:43;-3.90;99.90
23188;DHT22;11762;59.878;17.686;2023-11-22T05:48:15;-3.90;99.90
23188;DHT22;11762;59.878;17.686;2023-11-22T05:50:44;-3.90;99.90
23188;DHT22;11762;59.878;17.686;2023-11-22T05:53:11;-3.80;99.90
23188;DHT22;11762;59.878;17.686;2023-11-22T05:55:38;-3.80;99.90
23188;DHT22;11762;59.878;17.686;2023-11-22T05:58:06;-3.80;99.90
23188;DHT22;11762;59.878;17.686;2023-11-22T06:00:32;-3.70;99.90
23188;DHT22;11762;59.878;17.686;2023-11-22T06:02:59;-3.70;99.90
23188;DHT22;11762;59.878;17.686;2023-11-22T06:05:26;-3.70;99.90
23188;DHT22;11762;59.878;17.686;2023-11-22T06:07:55;-3.70;99.90
23188;DHT22;11762;59.878;17.686;2023-11-22T06:10:22;-3.60;99.90
23188;DHT22;11762;59.878;17.686;2023-11-22T06:12:50;-3.60;99.90
23188;DHT22;11762;59.878;17.686;2023-11-22T06:15:17;-3.50;99.90
23188;DHT22;11762;59.878;17.686;2023-11-22T06:17:46;-3.50;99.90
23188;DHT22;11762;59.878;17.686;2023-11-22T06:20:14;-3.50;99.90
23188;DHT22;11762;59.878;17.686;2023-11-22T06:22:42;-3.40;99.90
23188;DHT22;11762;59.878;17.686;2023-11-22T06:25:11;-3.30;99.90
23188;DHT22;11762;59.878;17.686;2023-11-22T06:27:39;-3.30;99.90
23188;DHT22;11762;59.878;17.686;2023-11-22T06:30:07;-3.30;99.90
23188;DHT22;11762;59.878;17.686;2023-11-22T06:32:34;-3.20;99.90
23188;DHT22;11762;59.878;17.686;2023-11-22T06:35:01;-3.20;99.90
23188;DHT22;11762;59.878;17.686;2023-11-22T06:37:29;-3.20;99.90
23188;DHT22;11762;59.878;17.686;2023-11-22T06:39:56;-3.20;99.90
23188;DHT22;11762;59.878;17.686;2023-11-22T06:42:25;-3.20;99.90
23188;DHT22;11762;59.878;17.686;2023-11-22T06:44:52;-3.20;99.90
23188;DHT22;11762;59.878;17.686;2023-11-22T06:47:23;-3.10;99.90
23188;DHT22;11762;59.878;17.686;2023-11-22T06:49:50;-3.10;99.90
23188;DHT22;11762;59.878;17.686;2023-11-22T06:52:17;-3.00;99.90
23188;DHT22;11762;59.878;17.686;2023-11-22T06:54:45;-3.00;99.90
23188;DHT22;11762;59.878;17.686;2023-11-22T06:57:12;-3.00;99.90
23188;DHT22;11762;59.878;17.686;2023-11-22T06:59:40;-3.00;99.90
23188;DHT22;11762;59.878;17.686;2023-11-22T07:02:07;-3.00;99.90
23188;DHT22;11762;59.878;17.686;2023-11-22T07:04:35;-2.90;99.90
23188;DHT22;11762;59.878;17.686;2023-11-22T07:07:03;-2.90;99.90
23188;DHT22;11762;59.878;17.686;2023-11-22T07:09:30;-2.90;99.90
23188;DHT22;11762;59.878;17.686;2023-11-22T07:11:58;-2.90;99.90
23188;DHT22;11762;59.878;17.686;2023-11-22T07:14:25;-2.80;99.90
23188;DHT22;11762;59.878;17.686;2023-11-22T07:16:53;-2.80;99.90
23188;DHT22;11762;59.878;17.686;2023-11-22T07:19:22;-2.70;99.90
23188;DHT22;11762;59.878;17.686;2023-11-22T07:21:49;-2.70;99.90
23188;DHT22;11762;59.878;17.686;2023-11-22T07:24:17;-2.70;99.90
23188;DHT22;11762;59.878;17.686;2023-11-22T07:26:44;-2.70;99.90
23188;DHT22;11762;59.878;17.686;2023-11-22T07:29:11;-2.60;99.90
23188;DHT22;11762;59.878;17.686;2023-11-22T07:31:38;-2.60;99.90
23188;DHT22;11762;59.878;17.686;2023-11-22T07:34:09;-2.50;99.90
23188;DHT22;11762;59.878;17.686;2023-11-22T07:36:37;-2.50;99.90
23188;DHT22;11762;59.878;17.686;2023-11-22T07:39:06;-2.40;99.90
23188;DHT22;11762;59.878;17.686;2023-11-22T07:41:33;-2.30;99.90
23188;DHT22;11762;59.878;17.686;2023-11-22T07:44:00;-2.30;99.90
23188;DHT22;11762;59.878;17.686;2023-11-22T07:46:27;-2.20;99.90
23188;DHT22;11762;59.878;17.686;2023-11-22T07:48:54;-2.20;99.90
23188;DHT22;11762;59.878;17.686;2023-11-22T07:51:22;-2.10;99.90
23188;DHT22;11762;59.878;17.686;2023-11-22T07:53:50;-2.20;99.90
23188;DHT22;11762;59.878;17.686;2023-11-22T07:56:17;-2.10;99.90
23188;DHT22;11762;59.878;17.686;2023-11-22T07:58:44;-2.10;99.90
23188;DHT22;11762;59.878;17.686;2023-11-22T08:01:12;-2.10;99.90
23188;DHT22;11762;59.878;17.686;2023-11-22T08:03:39;-2.00;99.90
23188;DHT22;11762;59.878;17.686;2023-11-22T08:06:11;-2.00;99.90
23188;DHT22;11762;59.878;17.686;2023-11-22T08:08:40;-2.00;99.90
23188;DHT22;11762;59.878;17.686;2023-11-22T08:11:07;-2.00;99.90
23188;DHT22;11762;59.878;17.686;2023-11-22T08:13:40;-1.90;99.90
23188;DHT22;11762;59.878;17.686;2023-11-22T08:16:08;-1.90;99.90
23188;DHT22;11762;59.878;17.686;2023-11-22T08:18:35;-1.90;99.90
23188;DHT22;11762;59.878;17.686;2023-11-22T08:21:02;-1.90;99.90
23188;DHT22;11762;59.878;17.686;2023-11-22T08:23:29;-1.80;99.90
23188;DHT22;11762;59.878;17.686;2023-11-22T08:25:59;-1.80;99.90
23188;DHT22;11762;59.878;17.686;2023-11-22T11:58:40;0.40;99.90
23188;DHT22;11762;59.878;17.686;2023-11-22T12:01:08;0.50;99.90
23188;DHT22;11762;59.878;17.686;2023-11-22T12:03:35;0.50;99.90
23188;DHT22;11762;59.878;17.686;2023-11-22T12:06:04;0.50;99.90
23188;DHT22;11762;59.878;17.686;2023-11-22T12:08:31;0.50;99.90
23188;DHT22;11762;59.878;17.686;2023-11-22T12:11:02;0.50;99.90
23188;DHT22;11762;59.878;17.686;2023-11-22T12:13:30;0.50;99.90
23188;DHT22;11762;59.878;17.686;2023-11-22T12:15:59;0.50;99.90
23188;DHT22;11762;59.878;17.686;2023-11-22T12:18:28;0.50;99.90
23188;DHT22;11762;59.878;17.686;2023-11-22T12:20:59;0.50;99.90
23188;DHT22;11762;59.878;17.686;2023-11-22T12:23:27;0.60;99.90
23188;DHT22;11762;59.878;17.686;2023-11-22T12:25:55;0.60;99.90
23188;DHT22;11762;59.878;17.686;2023-11-22T12:28:24;0.60;99.90
